Terminal Aerodrome Forecast
Issued by NWS

Home | Current Version | Previous Version | Text Only | Print | Product List | Glossary Off
Versions: 1 2 3 4 5 6 7 8 9 10 11 12 13 14 15 16 17 18 19

000
FTUS43 KTOP 131100
TAFFOE
TAF
KFOE 131133Z 1312/1412 14012KT P6SM SCT025 BKN035 OVC100
     FM131700 18020G30KT P6SM VCTS BKN035CB
     FM132000 VRB09KT 4SM TSRA BKN015CB OVC040
      TEMPO 1320/1322 2SM TSRA BKN008CB OVC015
     FM132200 35017G27KT 4SM TSRA OVC015CB
     FM140100 35024G35KT 4SM -DZ OVC015=

USA.gov is the U.S. government's official web portal to all federal, state and local government web resources and services.